sensor_id;sensor_type;location;lat;lon;timestamp;temperature;humidity
45313;SHT31;68267;51.540;5.854;2023-05-02T00:09:53;11.1;86.6
45313;SHT31;68267;51.540;5.854;2023-05-02T00:23:13;11.1;86.1
45313;SHT31;68267;51.540;5.854;2023-05-02T00:36:33;11.1;85.9
45313;SHT31;68267;51.540;5.854;2023-05-02T00:49:53;11.1;85.8
45313;SHT31;68267;51.540;5.854;2023-05-02T01:03:12;11.0;85.3
45313;SHT31;68267;51.540;5.854;2023-05-02T01:16:32;11.0;85.4
45313;SHT31;68267;51.540;5.854;2023-05-02T01:29:51;10.8;85.6
45313;SHT31;68267;51.540;5.854;2023-05-02T01:43:11;10.7;84.9
45313;SHT31;68267;51.540;5.854;2023-05-02T01:56:31;10.5;84.5
45313;SHT31;68267;51.540;5.854;2023-05-02T02:09:50;10.6;84.8
45313;SHT31;68267;51.540;5.854;2023-05-02T02:23:10;10.6;85.2
45313;SHT31;68267;51.540;5.854;2023-05-02T02:36:30;10.6;85.8
45313;SHT31;68267;51.540;5.854;2023-05-02T02:49:50;10.6;86.1
45313;SHT31;68267;51.540;5.854;2023-05-02T03:03:09;10.6;87.0
45313;SHT31;68267;51.540;5.854;2023-05-02T03:16:29;10.4;87.5
45313;SHT31;68267;51.540;5.854;2023-05-02T03:29:49;10.5;88.5
45313;SHT31;68267;51.540;5.854;2023-05-02T03:43:09;10.4;89.1
45313;SHT31;68267;51.540;5.854;2023-05-02T03:56:28;10.4;89.6
45313;SHT31;68267;51.540;5.854;2023-05-02T04:09:48;10.4;89.2
45313;SHT31;68267;51.540;5.854;2023-05-02T04:23:08;10.5;88.7
45313;SHT31;68267;51.540;5.854;2023-05-02T04:36:27;10.2;87.5
45313;SHT31;68267;51.540;5.854;2023-05-02T04:49:47;10.3;86.4
45313;SHT31;68267;51.540;5.854;2023-05-02T05:03:07;10.4;85.2
45313;SHT31;68267;51.540;5.854;2023-05-02T05:16:26;10.2;81.5
45313;SHT31;68267;51.540;5.854;2023-05-02T05:29:46;10.3;81.4
45313;SHT31;68267;51.540;5.854;2023-05-02T05:43:06;10.2;82.1
45313;SHT31;68267;51.540;5.854;2023-05-02T05:56:25;10.5;81.1
45313;SHT31;68267;51.540;5.854;2023-05-02T06:09:45;10.5;79.9
45313;SHT31;68267;51.540;5.854;2023-05-02T06:23:05;10.8;78.3
45313;SHT31;68267;51.540;5.854;2023-05-02T06:36:24;11.0;77.0
45313;SHT31;68267;51.540;5.854;2023-05-02T06:49:44;10.6;78.5
45313;SHT31;68267;51.540;5.854;2023-05-02T07:03:03;10.4;77.5
45313;SHT31;68267;51.540;5.854;2023-05-02T07:16:23;10.2;70.9
45313;SHT31;68267;51.540;5.854;2023-05-02T07:29:43;10.5;70.1
45313;SHT31;68267;51.540;5.854;2023-05-02T07:43:02;10.9;69.6
45313;SHT31;68267;51.540;5.854;2023-05-02T07:56:22;11.0;67.3
45313;SHT31;68267;51.540;5.854;2023-05-02T08:09:42;11.5;66.1
45313;SHT31;68267;51.540;5.854;2023-05-02T08:23:01;11.7;63.9
45313;SHT31;68267;51.540;5.854;2023-05-02T08:36:21;11.5;64.0
45313;SHT31;68267;51.540;5.854;2023-05-02T08:49:40;11.7;61.3
45313;SHT31;68267;51.540;5.854;2023-05-02T09:03:00;11.7;59.5
45313;SHT31;68267;51.540;5.854;2023-05-02T09:16:20;12.0;59.8
45313;SHT31;68267;51.540;5.854;2023-05-02T09:29:40;11.9;58.0
45313;SHT31;68267;51.540;5.854;2023-05-02T09:42:59;12.8;53.7
45313;SHT31;68267;51.540;5.854;2023-05-02T09:56:19;12.7;53.5
45313;SHT31;68267;51.540;5.854;2023-05-02T10:09:39;12.5;57.6
45313;SHT31;68267;51.540;5.854;2023-05-02T10:22:59;13.4;57.0
45313;SHT31;68267;51.540;5.854;2023-05-02T10:36:19;14.2;52.3
45313;SHT31;68267;51.540;5.854;2023-05-02T10:49:38;12.6;51.8
45313;SHT31;68267;51.540;5.854;2023-05-02T11:02:58;14.3;50.3
45313;SHT31;68267;51.540;5.854;2023-05-02T11:16:18;14.6;48.0
45313;SHT31;68267;51.540;5.854;2023-05-02T11:29:38;13.7;46.4
45313;SHT31;68267;51.540;5.854;2023-05-02T11:42:57;14.6;46.6
45313;SHT31;68267;51.540;5.854;2023-05-02T11:56:17;13.7;46.8
45313;SHT31;68267;51.540;5.854;2023-05-02T12:09:37;15.0;45.4
45313;SHT31;68267;51.540;5.854;2023-05-02T12:22:57;14.9;47.6
45313;SHT31;68267;51.540;5.854;2023-05-02T12:36:16;16.2;40.8
45313;SHT31;68267;51.540;5.854;2023-05-02T12:49:36;15.3;41.9
45313;SHT31;68267;51.540;5.854;2023-05-02T13:02:56;15.5;40.6
45313;SHT31;68267;51.540;5.854;2023-05-02T13:16:16;15.2;43.0
45313;SHT31;68267;51.540;5.854;2023-05-02T13:29:35;16.0;41.7
45313;SHT31;68267;51.540;5.854;2023-05-02T13:42:55;16.7;39.9
45313;SHT31;68267;51.540;5.854;2023-05-02T13:56:15;16.0;43.6
45313;SHT31;68267;51.540;5.854;2023-05-02T14:09:34;15.4;41.7
45313;SHT31;68267;51.540;5.854;2023-05-02T14:22:54;15.7;40.2
45313;SHT31;68267;51.540;5.854;2023-05-02T14:36:14;15.6;41.1
45313;SHT31;68267;51.540;5.854;2023-05-02T14:49:34;15.2;42.9
45313;SHT31;68267;51.540;5.854;2023-05-02T15:02:54;14.9;42.8
45313;SHT31;68267;51.540;5.854;2023-05-02T15:16:13;15.2;41.9
45313;SHT31;68267;51.540;5.854;2023-05-02T15:29:33;15.7;39.8
45313;SHT31;68267;51.540;5.854;2023-05-02T15:42:53;15.0;42.0
45313;SHT31;68267;51.540;5.854;2023-05-02T15:56:12;15.5;40.3
45313;SHT31;68267;51.540;5.854;2023-05-02T16:09:32;15.5;40.1
45313;SHT31;68267;51.540;5.854;2023-05-02T16:22:52;15.2;41.4
45313;SHT31;68267;51.540;5.854;2023-05-02T16:36:11;15.9;39.9
45313;SHT31;68267;51.540;5.854;2023-05-02T16:49:31;15.9;41.4
45313;SHT31;68267;51.540;5.854;2023-05-02T17:02:51;15.5;41.3
45313;SHT31;68267;51.540;5.854;2023-05-02T17:16:11;14.8;43.5
45313;SHT31;68267;51.540;5.854;2023-05-02T17:29:30;14.8;44.8
45313;SHT31;68267;51.540;5.854;2023-05-02T17:42:50;14.3;46.9
45313;SHT31;68267;51.540;5.854;2023-05-02T17:56:10;13.6;48.3
45313;SHT31;68267;51.540;5.854;2023-05-02T18:09:29;13.3;50.3
45313;SHT31;68267;51.540;5.854;2023-05-02T18:22:49;13.6;51.0
45313;SHT31;68267;51.540;5.854;2023-05-02T18:36:09;13.0;50.6
45313;SHT31;68267;51.540;5.854;2023-05-02T18:49:29;12.2;53.0
45313;SHT31;68267;51.540;5.854;2023-05-02T19:02:49;11.1;56.1
45313;SHT31;68267;51.540;5.854;2023-05-02T19:16:08;10.5;57.8
45313;SHT31;68267;51.540;5.854;2023-05-02T19:29:28;9.9;60.0
45313;SHT31;68267;51.540;5.854;2023-05-02T19:42:48;9.4;63.0
45313;SHT31;68267;51.540;5.854;2023-05-02T19:56:08;9.0;64.3
45313;SHT31;68267;51.540;5.854;2023-05-02T20:09:27;8.6;65.9
45313;SHT31;68267;51.540;5.854;2023-05-02T20:22:47;8.3;67.9
45313;SHT31;68267;51.540;5.854;2023-05-02T20:36:06;8.0;69.4
45313;SHT31;68267;51.540;5.854;2023-05-02T20:49:26;7.7;70.2
45313;SHT31;68267;51.540;5.854;2023-05-02T21:02:46;7.3;72.0
45313;SHT31;68267;51.540;5.854;2023-05-02T21:16:05;7.2;72.5
45313;SHT31;68267;51.540;5.854;2023-05-02T21:29:25;6.7;72.2
45313;SHT31;68267;51.540;5.854;2023-05-02T21:42:45;6.4;74.3
45313;SHT31;68267;51.540;5.854;2023-05-02T21:56:04;6.1;75.7
45313;SHT31;68267;51.540;5.854;2023-05-02T22:09:24;5.9;76.7
45313;SHT31;68267;51.540;5.854;2023-05-02T22:22:44;5.5;77.0
45313;SHT31;68267;51.540;5.854;2023-05-02T22:36:03;5.2;77.3
45313;SHT31;68267;51.540;5.854;2023-05-02T22:49:23;5.0;78.1
45313;SHT31;68267;51.540;5.854;2023-05-02T23:02:43;4.8;78.5
45313;SHT31;68267;51.540;5.854;2023-05-02T23:16:02;4.6;78.9
45313;SHT31;68267;51.540;5.854;2023-05-02T23:29:22;4.4;78.9
45313;SHT31;68267;51.540;5.854;2023-05-02T23:42:42;4.4;80.0
45313;SHT31;68267;51.540;5.854;2023-05-02T23:56:01;4.1;79.8
